createdAt,value
2022-08-14T00:02:27.791Z,23.36
2022-08-14T00:05:00.960Z,23.34
2022-08-14T00:07:29.358Z,23.33
2022-08-14T00:10:50.257Z,23.31
2022-08-14T00:12:56.440Z,23.27
2022-08-14T00:15:37.384Z,23.23
2022-08-14T00:19:05.698Z,23.20
2022-08-14T00:21:04.848Z,23.16
2022-08-14T00:23:39.419Z,23.13
2022-08-14T00:26:08.424Z,23.10
2022-08-14T00:28:49.651Z,23.06
2022-08-14T00:31:19.629Z,23.02
2022-08-14T00:34:36.063Z,22.99
2022-08-14T00:36:52.467Z,22.96
2022-08-14T00:39:21.960Z,22.93
2022-08-14T00:41:50.280Z,22.91
2022-08-14T00:44:21.375Z,22.87
2022-08-14T00:47:00.876Z,22.85
2022-08-14T00:49:43.202Z,22.81
2022-08-14T00:52:17.536Z,22.79
2022-08-14T00:54:52.831Z,22.78
2022-08-14T00:57:28.876Z,22.76
2022-08-14T00:59:57.572Z,22.74
2022-08-14T01:02:27.751Z,22.71
2022-08-14T01:05:00.777Z,22.68
2022-08-14T01:07:38.792Z,22.68
2022-08-14T01:10:18.850Z,22.67
2022-08-14T01:12:48.752Z,22.66
2022-08-14T01:15:20.849Z,22.64
2022-08-14T01:18:17.657Z,22.61
2022-08-14T01:21:03.308Z,22.60
2022-08-14T01:23:41.716Z,22.58
2022-08-14T01:26:34.411Z,22.58
2022-08-14T01:29:06.739Z,22.58
2022-08-14T01:31:42.981Z,22.58
2022-08-14T01:35:20.412Z,22.58
2022-08-14T01:36:59.819Z,22.57
2022-08-14T01:39:32.275Z,22.56
2022-08-14T01:42:01.220Z,22.53
2022-08-14T01:44:33.869Z,22.52
2022-08-14T01:47:12.451Z,22.49
2022-08-14T01:49:59.086Z,22.46
2022-08-14T01:52:33.943Z,22.44
2022-08-14T01:55:20.037Z,22.41
2022-08-14T01:58:00.565Z,22.36
2022-08-14T02:00:30.951Z,22.33
2022-08-14T02:03:06.836Z,22.30
2022-08-14T02:05:38.394Z,22.27
2022-08-14T02:08:09.641Z,22.24
2022-08-14T02:10:47.209Z,22.21
2022-08-14T02:13:18.967Z,22.18
2022-08-14T02:15:50.169Z,22.17
2022-08-14T02:18:19.082Z,22.14
2022-08-14T02:20:48.776Z,22.12
2022-08-14T02:23:23.893Z,22.12
2022-08-14T02:26:24.785Z,22.11
2022-08-14T02:29:00.164Z,22.10
2022-08-14T02:31:42.485Z,22.10
2022-08-14T02:34:22.575Z,22.09
2022-08-14T02:37:03.601Z,22.07
2022-08-14T02:39:37.637Z,22.06
2022-08-14T02:42:13.365Z,22.07
2022-08-14T02:44:49.071Z,22.06
2022-08-14T02:47:21.009Z,22.05
2022-08-14T02:49:54.687Z,22.03
2022-08-14T02:52:54.627Z,22.00
2022-08-14T02:55:15.566Z,21.98
2022-08-14T02:58:03.008Z,21.94
2022-08-14T03:00:35.152Z,21.92
2022-08-14T03:03:07.527Z,21.90
2022-08-14T03:05:41.609Z,21.88
2022-08-14T03:08:16.133Z,21.85
2022-08-14T03:10:48.565Z,21.82
2022-08-14T03:13:21.187Z,21.80
2022-08-14T03:15:55.627Z,21.77
2022-08-14T03:18:31.246Z,21.74
2022-08-14T03:21:04.320Z,21.73
2022-08-14T03:23:38.190Z,21.70
2022-08-14T03:26:13.058Z,21.68
2022-08-14T03:28:50.113Z,21.65
2022-08-14T03:31:22.453Z,21.63
2022-08-14T03:33:54.691Z,21.63
2022-08-14T03:37:38.575Z,21.61
2022-08-14T03:39:22.105Z,21.60
2022-08-14T03:41:56.143Z,21.59
2022-08-14T03:45:19.482Z,21.57
2022-08-14T03:47:17.838Z,21.58
2022-08-14T03:49:50.032Z,21.56
2022-08-14T03:52:40.594Z,21.57
2022-08-14T03:55:13.316Z,21.56
2022-08-14T03:57:42.750Z,21.57
2022-08-14T04:00:40.282Z,21.56
2022-08-14T04:03:05.791Z,21.55
2022-08-14T04:05:42.629Z,21.55
2022-08-14T04:08:29.931Z,21.54
2022-08-14T04:11:01.817Z,21.52
2022-08-14T04:13:31.473Z,21.51
2022-08-14T04:16:05.010Z,21.50
2022-08-14T04:18:34.114Z,21.49
2022-08-14T04:21:03.982Z,21.47
2022-08-14T04:23:33.800Z,21.47
2022-08-14T04:26:03.778Z,21.44
2022-08-14T04:29:06.704Z,21.43
2022-08-14T04:33:10.256Z,21.41
2022-08-14T04:34:16.921Z,21.38
2022-08-14T04:37:07.350Z,21.39
2022-08-14T04:39:57.430Z,21.37
2022-08-14T04:42:47.619Z,21.36
2022-08-14T04:45:23.520Z,21.34
2022-08-14T04:48:12.668Z,21.36
2022-08-14T04:50:45.333Z,21.35
2022-08-14T04:53:23.117Z,21.36
2022-08-14T04:55:54.955Z,21.37
2022-08-14T05:01:06.184Z,21.50
2022-08-14T05:03:43.029Z,21.56
2022-08-14T05:06:38.161Z,21.61
2022-08-14T05:09:01.331Z,21.67
2022-08-14T05:11:30.387Z,21.73
2022-08-14T05:14:32.992Z,21.81
2022-08-14T05:16:48.149Z,21.88
2022-08-14T05:19:26.889Z,21.97
2022-08-14T05:22:17.287Z,22.05
2022-08-14T05:24:50.617Z,22.18
2022-08-14T05:27:23.337Z,22.27
2022-08-14T05:29:56.760Z,22.39
2022-08-14T05:32:36.920Z,22.48
2022-08-14T05:35:07.687Z,22.58
2022-08-14T05:37:36.098Z,22.65
2022-08-14T05:40:05.353Z,22.72
2022-08-14T05:42:35.110Z,22.80
2022-08-14T05:45:11.047Z,22.86
2022-08-14T05:47:42.925Z,22.94
2022-08-14T05:50:17.331Z,22.98
2022-08-14T05:52:50.335Z,23.04
2022-08-14T05:55:22.582Z,23.13
2022-08-14T05:57:54.835Z,23.19
2022-08-14T06:00:31.677Z,23.26
2022-08-14T06:03:07.463Z,23.34
2022-08-14T06:05:39.243Z,23.41
2022-08-14T06:08:31.447Z,23.50
2022-08-14T06:11:07.211Z,23.59
2022-08-14T06:13:41.125Z,23.67
2022-08-14T06:16:13.005Z,23.76
2022-08-14T06:18:41.124Z,23.85
2022-08-14T06:21:12.987Z,23.91
2022-08-14T06:23:41.850Z,23.98
2022-08-14T06:26:11.285Z,24.04
2022-08-14T06:28:40.473Z,24.12
2022-08-14T06:31:13.592Z,24.21
2022-08-14T06:35:03.103Z,24.29
2022-08-14T06:36:31.757Z,24.38
2022-08-14T06:38:59.872Z,24.45
2022-08-14T06:41:59.527Z,24.53
2022-08-14T06:44:17.070Z,24.64
2022-08-14T06:46:49.402Z,24.73
2022-08-14T06:49:17.661Z,24.83
2022-08-14T06:51:47.233Z,24.92
2022-08-14T06:54:18.288Z,25.04
2022-08-14T06:56:54.432Z,25.14
2022-08-14T06:59:25.222Z,25.24
2022-08-14T07:02:13.710Z,25.35
2022-08-14T07:05:05.434Z,25.48
2022-08-14T07:07:41.249Z,25.59
2022-08-14T07:10:16.806Z,25.71
2022-08-14T07:13:01.587Z,25.84
2022-08-14T07:15:32.632Z,25.96
2022-08-14T07:18:03.546Z,26.07
2022-08-14T07:20:34.003Z,26.16
2022-08-14T07:23:10.870Z,26.26
2022-08-14T07:25:51.682Z,26.36
2022-08-14T07:28:23.836Z,26.47
2022-08-14T07:30:57.522Z,26.55
2022-08-14T07:33:36.467Z,26.66
2022-08-14T07:36:27.144Z,26.77
2022-08-14T07:39:00.233Z,26.83
2022-08-14T07:41:34.122Z,26.87
2022-08-14T07:44:29.060Z,26.91
2022-08-14T07:46:52.913Z,26.96
2022-08-14T07:49:24.168Z,26.98
2022-08-14T07:51:53.108Z,27.00
2022-08-14T07:54:29.942Z,27.03
2022-08-14T07:56:59.923Z,27.11
2022-08-14T07:59:41.127Z,27.21
2022-08-14T08:02:18.937Z,27.35
2022-08-14T08:04:54.198Z,27.50
2022-08-14T08:07:24.126Z,27.66
2022-08-14T08:09:58.032Z,27.82
2022-08-14T08:12:32.339Z,27.94
2022-08-14T08:15:07.183Z,28.05
2022-08-14T08:17:42.785Z,28.18
2022-08-14T08:20:27.373Z,28.35
2022-08-14T08:23:05.922Z,28.47
2022-08-14T08:25:40.049Z,28.61
2022-08-14T08:28:21.863Z,28.73
2022-08-14T08:30:56.228Z,28.86
2022-08-14T08:33:32.116Z,29.01
2022-08-14T08:36:08.166Z,29.14
2022-08-14T08:39:17.197Z,29.26
2022-08-14T08:41:41.913Z,29.37
2022-08-14T08:44:17.530Z,29.48
2022-08-14T08:47:03.607Z,29.56
2022-08-14T08:49:42.283Z,29.62
2022-08-14T08:52:24.970Z,29.70
2022-08-14T08:54:57.931Z,29.78
2022-08-14T08:57:29.402Z,29.90
2022-08-14T08:59:58.832Z,30.00
2022-08-14T09:02:27.940Z,30.05
2022-08-14T09:05:03.757Z,30.06
2022-08-14T09:07:31.971Z,30.12
2022-08-14T09:10:01.206Z,30.24
2022-08-14T09:12:33.455Z,30.26
2022-08-14T09:15:12.310Z,30.32
2022-08-14T09:17:42.427Z,30.43
2022-08-14T09:20:14.003Z,30.54
2022-08-14T09:22:57.560Z,30.69
2022-08-14T09:26:00.110Z,30.79
2022-08-14T09:28:17.497Z,30.86
2022-08-14T09:30:52.930Z,30.96
2022-08-14T09:33:57.585Z,31.03
2022-08-14T09:36:48.314Z,31.14
2022-08-14T09:39:34.413Z,31.24
2022-08-14T09:42:34.272Z,31.23
2022-08-14T09:45:17.204Z,31.21
2022-08-14T09:47:51.846Z,31.20
2022-08-14T09:50:25.909Z,31.22
2022-08-14T09:52:58.166Z,31.26
2022-08-14T09:55:28.249Z,31.28
2022-08-14T09:58:19.265Z,31.35
2022-08-14T10:00:52.759Z,31.50
2022-08-14T10:03:34.699Z,31.65
2022-08-14T10:06:11.904Z,31.73
2022-08-14T10:08:50.604Z,31.84
2022-08-14T10:11:23.620Z,31.98
2022-08-14T10:13:56.834Z,32.12
2022-08-14T10:16:33.499Z,32.20
2022-08-14T10:19:10.333Z,32.24
2022-08-14T10:21:45.750Z,32.35
2022-08-14T10:24:36.728Z,32.46
2022-08-14T10:27:06.608Z,32.46
2022-08-14T10:29:37.554Z,32.50
2022-08-14T10:32:17.251Z,32.63
2022-08-14T10:34:52.726Z,32.72
2022-08-14T10:37:23.006Z,32.69
2022-08-14T10:40:10.536Z,32.66
2022-08-14T10:42:41.143Z,32.67
2022-08-14T10:45:21.409Z,32.80
2022-08-14T10:48:07.637Z,32.92
2022-08-14T10:50:45.745Z,33.02
2022-08-14T10:53:15.420Z,33.17
2022-08-14T10:55:45.327Z,33.21
2022-08-14T10:58:17.205Z,33.30
2022-08-14T11:00:57.419Z,33.33
2022-08-14T11:03:56.193Z,33.42
2022-08-14T11:06:25.394Z,33.50
2022-08-14T11:08:55.932Z,33.48
2022-08-14T11:11:35.801Z,33.46
2022-08-14T11:14:09.453Z,33.60
2022-08-14T11:16:40.963Z,33.75
2022-08-14T11:19:20.615Z,33.91
2022-08-14T11:21:56.025Z,34.02
2022-08-14T11:24:55.024Z,34.10
2022-08-14T11:27:20.207Z,34.13
2022-08-14T11:29:52.779Z,34.09
2022-08-14T11:32:29.218Z,34.13
2022-08-14T11:34:59.617Z,34.20
2022-08-14T11:37:40.638Z,34.35
2022-08-14T11:40:24.198Z,34.56
2022-08-14T11:42:59.317Z,34.73
2022-08-14T11:45:34.285Z,34.90
2022-08-14T11:49:02.388Z,35.17
2022-08-14T11:51:16.359Z,35.46
2022-08-14T11:53:52.144Z,35.66
2022-08-14T11:56:25.291Z,35.62
2022-08-14T11:58:55.726Z,35.99
2022-08-14T12:01:30.924Z,36.51
2022-08-14T12:04:21.759Z,36.99
2022-08-14T12:07:01.877Z,37.01
2022-08-14T12:09:32.541Z,37.16
2022-08-14T12:12:01.708Z,37.42
2022-08-14T12:14:35.451Z,37.44
2022-08-14T12:17:12.785Z,37.30
2022-08-14T12:19:53.714Z,37.39
2022-08-14T12:22:36.084Z,37.18
2022-08-14T12:25:11.382Z,37.18
2022-08-14T12:27:52.839Z,37.15
2022-08-14T12:30:39.710Z,36.84
2022-08-14T12:33:24.013Z,37.08
2022-08-14T12:35:58.031Z,37.41
2022-08-14T12:38:43.757Z,37.67
2022-08-14T12:41:20.454Z,37.76
2022-08-14T12:43:53.422Z,37.81
2022-08-14T12:46:28.576Z,38.66
2022-08-14T12:49:00.017Z,39.10
2022-08-14T12:51:31.366Z,39.24
2022-08-14T12:54:26.915Z,39.79
2022-08-14T12:57:06.582Z,40.38
2022-08-14T12:59:42.675Z,40.61
2022-08-14T13:02:26.397Z,39.99
2022-08-14T13:04:57.754Z,39.85
2022-08-14T13:07:32.241Z,40.52
2022-08-14T13:10:46.260Z,41.21
2022-08-14T13:13:13.177Z,40.73
2022-08-14T13:15:45.715Z,41.00
2022-08-14T13:18:16.810Z,41.40
2022-08-14T13:20:51.477Z,40.67
2022-08-14T13:23:31.633Z,39.85
2022-08-14T13:26:02.835Z,39.26
2022-08-14T13:28:33.825Z,38.76
2022-08-14T13:31:08.997Z,38.52
2022-08-14T13:33:41.240Z,38.71
2022-08-14T13:36:24.182Z,38.47
2022-08-14T13:39:01.676Z,38.91
2022-08-14T13:41:36.240Z,39.10
2022-08-14T13:44:05.160Z,38.90
2022-08-14T13:46:43.690Z,38.83
2022-08-14T13:49:14.866Z,39.78
2022-08-14T13:51:49.351Z,40.06
2022-08-14T13:54:22.611Z,39.75
2022-08-14T13:56:52.919Z,39.27
2022-08-14T13:59:37.785Z,38.73
2022-08-14T14:02:09.431Z,38.18
2022-08-14T14:04:41.918Z,38.06
2022-08-14T14:07:13.108Z,39.19
2022-08-14T14:09:52.839Z,40.15
2022-08-14T14:12:38.219Z,41.54
2022-08-14T14:15:13.716Z,42.51
2022-08-14T14:17:44.049Z,42.87
2022-08-14T14:20:35.163Z,41.99
2022-08-14T14:23:10.461Z,41.31
2022-08-14T14:25:47.996Z,42.04
2022-08-14T14:28:24.467Z,42.74
2022-08-14T14:30:57.323Z,43.83
2022-08-14T14:33:49.333Z,45.07
2022-08-14T14:36:24.962Z,46.11
2022-08-14T14:38:56.399Z,46.80
2022-08-14T14:41:37.899Z,47.55
2022-08-14T14:44:16.068Z,46.82
2022-08-14T14:46:50.691Z,46.43
2022-08-14T14:49:21.717Z,47.24
2022-08-14T14:51:51.572Z,48.00
2022-08-14T14:54:30.307Z,48.62
2022-08-14T14:57:02.339Z,49.18
2022-08-14T14:59:35.977Z,49.53
2022-08-14T15:02:09.082Z,49.90
2022-08-14T15:04:43.594Z,50.23
2022-08-14T15:07:13.205Z,50.37
2022-08-14T15:09:44.737Z,50.17
2022-08-14T15:12:34.225Z,50.40
2022-08-14T15:15:09.045Z,50.85
2022-08-14T15:17:41.016Z,51.21
2022-08-14T15:20:29.794Z,51.57
2022-08-14T15:23:11.736Z,51.63
2022-08-14T15:25:40.957Z,51.53
2022-08-14T15:28:11.585Z,51.50
2022-08-14T15:30:46.007Z,50.26
2022-08-14T15:34:13.414Z,49.99
2022-08-14T15:36:30.026Z,50.60
2022-08-14T15:38:58.970Z,50.94
2022-08-14T15:41:33.670Z,51.30
2022-08-14T15:44:24.561Z,51.70
2022-08-14T15:46:58.236Z,51.47
2022-08-14T15:49:33.226Z,51.21
2022-08-14T15:52:04.678Z,51.60
2022-08-14T15:54:33.892Z,52.19
2022-08-14T15:57:06.219Z,52.30
2022-08-14T15:59:51.454Z,52.45
2022-08-14T16:02:27.546Z,51.97
2022-08-14T16:04:56.712Z,49.70
2022-08-14T16:07:27.343Z,47.55
2022-08-14T16:10:25.747Z,46.45
2022-08-14T16:12:47.558Z,45.33
2022-08-14T16:15:16.670Z,45.53
2022-08-14T16:17:47.487Z,46.75
2022-08-14T16:20:41.053Z,47.74
2022-08-14T16:25:58.368Z,48.59
2022-08-14T16:28:28.755Z,47.82
2022-08-14T16:30:57.172Z,46.96
2022-08-14T16:33:56.328Z,45.85
2022-08-14T16:36:29.824Z,44.97
2022-08-14T16:39:02.222Z,45.20
2022-08-14T16:41:31.374Z,45.58
2022-08-14T16:44:04.728Z,46.18
2022-08-14T16:46:38.317Z,46.82
2022-08-14T16:49:16.137Z,47.21
2022-08-14T16:51:52.629Z,47.45
2022-08-14T16:54:35.248Z,47.53
2022-08-14T16:57:19.876Z,47.44
2022-08-14T16:59:52.246Z,47.32
2022-08-14T17:02:36.462Z,47.17
2022-08-14T17:05:20.707Z,47.15
2022-08-14T17:08:31.643Z,46.95
2022-08-14T17:11:10.682Z,46.36
2022-08-14T17:13:58.154Z,45.54
2022-08-14T17:16:35.799Z,44.94
2022-08-14T17:19:13.374Z,44.32
2022-08-14T17:21:46.808Z,43.78
2022-08-14T17:24:56.085Z,43.16
2022-08-14T17:27:07.388Z,42.41
2022-08-14T17:29:56.001Z,41.66
2022-08-14T17:32:56.107Z,40.83
2022-08-14T17:35:26.566Z,40.06
2022-08-14T17:41:27.567Z,38.84
2022-08-14T17:44:14.697Z,38.37
2022-08-14T17:46:55.013Z,37.96
2022-08-14T17:49:26.271Z,37.62
2022-08-14T17:52:17.094Z,37.28
2022-08-14T17:54:52.896Z,36.98
2022-08-14T17:57:30.253Z,36.69
2022-08-14T18:00:04.040Z,36.42
2022-08-14T18:02:36.253Z,36.14
2022-08-14T18:05:09.244Z,35.86
2022-08-14T18:07:59.655Z,35.59
2022-08-14T18:10:55.306Z,35.30
2022-08-14T18:13:16.920Z,35.02
2022-08-14T18:15:50.883Z,34.80
2022-08-14T18:18:19.406Z,34.56
2022-08-14T18:21:23.687Z,34.33
2022-08-14T18:23:42.981Z,34.06
2022-08-14T18:26:36.056Z,33.81
2022-08-14T18:29:02.362Z,33.55
2022-08-14T18:31:43.473Z,33.37
2022-08-14T18:34:30.746Z,33.14
2022-08-14T18:37:14.293Z,32.91
2022-08-14T18:40:01.923Z,32.71
2022-08-14T18:42:45.690Z,32.49
2022-08-14T18:45:19.061Z,32.36
2022-08-14T18:48:33.333Z,32.18
2022-08-14T18:51:19.095Z,32.07
2022-08-14T18:53:59.358Z,31.94
2022-08-14T18:57:00.265Z,31.79
2022-08-14T18:59:39.266Z,31.71
2022-08-14T19:02:44.631Z,31.59
2022-08-14T19:05:14.401Z,31.50
2022-08-14T19:07:43.620Z,31.40
2022-08-14T19:10:37.575Z,31.25
2022-08-14T19:13:12.095Z,31.17
2022-08-14T19:15:56.538Z,31.06
2022-08-14T19:18:28.127Z,30.98
2022-08-14T19:20:59.433Z,30.89
2022-08-14T19:23:42.850Z,30.78
2022-08-14T19:26:37.620Z,30.64
2022-08-14T19:29:38.167Z,30.48
2022-08-14T19:32:39.597Z,30.32
2022-08-14T19:35:55.398Z,30.18
2022-08-14T19:38:57.465Z,30.04
2022-08-14T19:41:32.189Z,29.93
2022-08-14T19:44:12.096Z,29.83
2022-08-14T19:47:02.673Z,29.71
2022-08-14T19:50:08.116Z,29.57
2022-08-14T19:52:29.653Z,29.42
2022-08-14T19:55:00.557Z,29.34
2022-08-14T19:57:31.763Z,29.23
2022-08-14T20:00:28.351Z,29.14
2022-08-14T20:03:10.162Z,29.02
2022-08-14T20:05:45.875Z,28.92
2022-08-14T20:11:00.561Z,28.83
2022-08-14T20:11:15.866Z,28.75
2022-08-14T20:14:10.421Z,28.65
2022-08-14T20:16:41.131Z,28.60
2022-08-14T20:19:18.537Z,28.57
2022-08-14T20:22:00.812Z,28.53
2022-08-14T20:24:43.196Z,28.47
2022-08-14T20:27:39.601Z,28.41
2022-08-14T20:30:35.946Z,28.39
2022-08-14T20:33:11.272Z,28.32
2022-08-14T20:35:44.518Z,28.24
2022-08-14T20:38:29.265Z,28.18
2022-08-14T20:41:05.595Z,28.13
2022-08-14T20:43:56.036Z,28.11
2022-08-14T20:46:29.521Z,28.04
2022-08-14T20:49:00.670Z,27.98
2022-08-14T20:51:37.039Z,27.93
2022-08-14T20:54:09.952Z,27.86
2022-08-14T20:56:40.588Z,27.80
2022-08-14T20:59:18.055Z,27.72
2022-08-14T21:01:55.453Z,27.66
2022-08-14T21:04:31.286Z,27.58
2022-08-14T21:07:25.927Z,27.53
2022-08-14T21:10:33.823Z,27.43
2022-08-14T21:13:26.639Z,27.38
2022-08-14T21:15:57.429Z,27.35
2022-08-14T21:18:29.684Z,27.32
2022-08-14T21:20:59.955Z,27.33
2022-08-14T21:23:32.526Z,27.33
2022-08-14T21:26:05.338Z,27.36
2022-08-14T21:28:35.583Z,27.35
2022-08-14T21:31:05.575Z,27.31
2022-08-14T21:33:36.942Z,27.30
2022-08-14T21:36:08.615Z,27.27
2022-08-14T21:38:42.328Z,27.26
2022-08-14T21:41:43.408Z,27.23
2022-08-14T21:44:18.009Z,27.19
2022-08-14T21:46:54.022Z,27.18
2022-08-14T21:49:32.239Z,27.15
2022-08-14T21:52:51.932Z,27.09
2022-08-14T21:55:00.734Z,27.02
2022-08-14T21:57:56.444Z,26.92
2022-08-14T22:00:36.304Z,26.82
2022-08-14T22:03:08.994Z,26.74
2022-08-14T22:05:41.997Z,26.66
2022-08-14T22:08:14.158Z,26.59
2022-08-14T22:10:46.797Z,26.53
2022-08-14T22:13:17.362Z,26.47
2022-08-14T22:15:49.786Z,26.42
2022-08-14T22:18:21.149Z,26.36
2022-08-14T22:20:56.637Z,26.29
2022-08-14T22:23:28.351Z,26.23
2022-08-14T22:25:56.969Z,26.16
2022-08-14T22:28:32.809Z,26.12
2022-08-14T22:31:04.005Z,26.06
2022-08-14T22:33:40.655Z,25.99
2022-08-14T22:36:34.251Z,25.94
2022-08-14T22:39:11.012Z,25.87
2022-08-14T22:41:42.899Z,25.82
2022-08-14T22:44:15.498Z,25.75
2022-08-14T22:46:45.276Z,25.69
2022-08-14T22:49:16.216Z,25.66
2022-08-14T22:52:32.100Z,25.58
2022-08-14T22:54:58.908Z,25.52
2022-08-14T22:57:37.181Z,25.48
2022-08-14T23:00:13.929Z,25.42
2022-08-14T23:02:43.698Z,25.37
2022-08-14T23:05:15.280Z,25.33
2022-08-14T23:08:58.412Z,25.27
2022-08-14T23:10:34.865Z,25.23
2022-08-14T23:13:07.499Z,25.20
2022-08-14T23:15:37.551Z,25.16
2022-08-14T23:18:06.220Z,25.10
2022-08-14T23:20:36.478Z,25.07
2022-08-14T23:23:22.312Z,25.01
2022-08-14T23:25:59.734Z,24.97
2022-08-14T23:28:32.798Z,24.93
2022-08-14T23:31:05.597Z,24.90
2022-08-14T23:33:35.814Z,24.85
2022-08-14T23:36:31.567Z,24.81
2022-08-14T23:39:01.998Z,24.76
2022-08-14T23:41:46.242Z,24.72
2022-08-14T23:44:23.696Z,24.69
2022-08-14T23:46:56.908Z,24.67
2022-08-14T23:49:56.854Z,24.64
2022-08-14T23:53:07.271Z,24.62
2022-08-14T23:55:11.169Z,24.58
2022-08-14T23:57:43.615Z,24.58
